Jorge Newbery Airpark
SABE : rendu visible

Aérodrome :











RETROUVEZ-NOUS SUR...

 
LOGIN :

S'inscrire | Disclaimer

   EN    FR    IT 

 









Légende :    VFR   VFR Marginal   IFR   IFR Intensif   IFR Très Intensif
Visi : 
Plafond : 
>= 8 km
>= 3000ft
5 à 8 km
1000 à 3000 ft
1500m à 5 km
500 à 1000 ft
800 à 1500m
200 à 500 ft
< 800m
< 200 ft
Symboles :   Orages  Brouillard  Fortes neiges  Fortes précipitations  Vent > 20 kt






- Altitude de l'aérodrome : 18 ft
- Code IATA : AEP


SABE - Jorge Newbery Airpark

DERNIER METAR :
  • 090700Z 17003KT CAVOK 13/09 Q1024 NOSIG

METARs EXPIRÉS :
  • 090600Z 18002KT CAVOK 13/08 Q1024 NOSIG
  • 090500Z 18001KT CAVOK 13/08 Q1024 NOSIG

TAF TAF SABE
Valide du 09 à 06h jusqu'au 10 à 06h UTC


090500Z 0906/1006 16005KT 9999 SCT020 TX18/0918Z TN11/0910Z
BECMG 0911/0913 9999 SCT030
BECMG 0920/0922 09015KT CAVOK
BECMG 1002/1004 09005KT 9999 BKN015



MET'MAP, la Météo Aéronautique d'un coup d'oeil ! - Copyright ORBIFLY Décembre 2007 - Disclaimer

ORBIFLY MET'MAP TEAM :

Programmation & Développement : Alexandra Zaïnal
Sur une idée originale de : Baudouin d'Aumeries
Assistance à la programmation : Marc-Olivier Méhu
Soutien technique & logistique : Manuel Goepfert

Contact : metmap@orbifly.com




SOURCES & CREDITS :

   NOAA       Earth
Advisory